Time;durP1;ratioP1;P1;durP2;ratioP2;P2;SDS_P1;SDS_P2;PMS_P1;PMS_P2;Temp;Humidity;BMP_temperature;BMP_pressure;BME280_temperature;BME280_humidity;BME280_pressure;Samples;Min_cycle;Max_cycle;Signal;HPM_P1;HPM_P2
2023/03/12 00:00:50;;;;;;;2.47;2.13;;;2.50;73.60;3.80;96202.00;;;;5050267;28;20474;-85
2023/03/12 00:03:40;;;;;;;2.47;1.80;;;2.50;73.60;3.30;96210.00;;;;5050420;28;20723;-85
2023/03/12 00:06:29;;;;;;;2.07;1.87;;;2.30;74.80;3.20;96205.00;;;;5047824;28;20423;-85
2023/03/12 00:09:18;;;;;;;3.37;1.70;;;2.20;75.60;3.00;96208.00;;;;5047830;28;20435;-85
2023/03/12 00:12:08;;;;;;;2.60;2.30;;;2.00;76.00;3.30;96213.00;;;;5044589;28;20427;-85
2023/03/12 00:14:56;;;;;;;4.07;2.47;;;2.00;76.90;3.20;96205.00;;;;5048979;28;20447;-84
2023/03/12 00:17:45;;;;;;;1.20;1.10;;;2.00;77.60;2.50;96219.00;;;;5047768;28;20412;-87
2023/03/12 00:20:35;;;;;;;1.53;1.37;;;1.90;77.10;2.90;96223.00;;;;5046345;28;20471;-88
2023/03/12 00:23:24;;;;;;;3.77;1.50;;;1.80;77.60;3.20;96219.00;;;;5042179;28;20428;-87
2023/03/12 00:26:16;;;;;;;6.43;1.60;;;1.80;78.30;3.10;96230.00;;;;5045315;28;20517;-88
2023/03/12 00:29:05;;;;;;;1.53;1.43;;;2.20;77.50;2.80;96233.00;;;;5050112;28;20423;-87
2023/03/12 00:31:53;;;;;;;3.27;1.60;;;1.80;76.80;2.90;96243.00;;;;5040888;28;20434;-87
2023/03/12 00:34:42;;;;;;;2.87;1.77;;;1.80;77.50;2.50;96252.00;;;;5046376;28;20440;-85
2023/03/12 00:37:33;;;;;;;1.27;1.17;;;1.70;78.40;2.10;96258.00;;;;5048211;28;20435;-87
2023/03/12 00:40:21;;;;;;;1.63;1.53;;;1.50;79.70;2.50;96253.00;;;;5044835;28;20466;-87
2023/03/12 00:43:10;;;;;;;1.90;1.20;;;1.70;81.10;2.40;96259.00;;;;5046712;28;20442;-89
2023/03/12 00:45:59;;;;;;;1.57;1.47;;;1.40;80.60;2.40;96268.00;;;;5046658;28;20424;-87
2023/03/12 00:48:48;;;;;;;1.53;1.00;;;1.30;80.10;2.40;96266.00;;;;5048385;28;20487;-87
2023/03/12 00:51:36;;;;;;;1.63;1.37;;;1.30;80.60;2.30;96268.00;;;;5045508;28;20797;-87
2023/03/12 00:54:27;;;;;;;1.30;1.20;;;1.20;80.30;2.40;96267.00;;;;5049917;28;20452;-86
2023/03/12 00:57:15;;;;;;;1.10;1.10;;;2.60;80.30;2.40;96270.00;;;;5046418;28;20427;-87
2023/03/12 01:00:08;;;;;;;3.40;1.27;;;1.30;78.80;2.00;96266.00;;;;5043759;28;20502;-85
2023/03/12 01:02:57;;;;;;;2.10;1.33;;;1.20;80.10;1.90;96267.00;;;;5046432;28;20435;-85
2023/03/12 01:05:52;;;;;;;1.23;1.10;;;1.10;80.70;2.00;96265.00;;;;5047639;28;20516;-85
2023/03/12 01:08:41;;;;;;;1.37;1.10;;;2.50;82.10;1.80;96269.00;;;;5046605;28;20984;-85
2023/03/12 01:11:32;;;;;;;1.43;1.30;;;1.00;81.70;1.70;96274.00;;;;5003340;22;20912;-73
2023/03/12 01:14:21;;;;;;;1.70;1.27;;;0.80;81.30;1.60;96273.00;;;;4972766;28;20431;-74
2023/03/12 01:17:10;;;;;;;1.10;1.10;;;0.80;81.90;1.30;96268.00;;;;4963819;28;20427;-73
2023/03/12 01:19:58;;;;;;;1.73;1.10;;;0.70;82.60;1.40;96268.00;;;;4962276;28;20899;-73
2023/03/12 01:22:47;;;;;;;1.40;1.30;;;0.40;83.40;1.40;96276.00;;;;4966579;28;20459;-73
2023/03/12 01:25:37;;;;;;;2.00;1.23;;;0.50;83.60;1.40;96277.00;;;;4967029;28;20545;-73
2023/03/12 01:28:27;;;;;;;1.03;1.03;;;0.50;84.60;1.30;96272.00;;;;4965079;28;20435;-73
2023/03/12 01:31:18;;;;;;;1.37;1.00;;;0.40;84.20;1.30;96281.00;;;;4966132;28;20455;-73
2023/03/12 01:34:09;;;;;;;1.17;1.07;;;0.30;84.00;1.30;96272.00;;;;4962792;28;20876;-73
2023/03/12 01:36:58;;;;;;;1.40;1.30;;;0.30;84.70;1.40;96278.00;;;;4966038;28;20506;-73
2023/03/12 01:39:46;;;;;;;1.70;1.33;;;0.30;84.70;1.20;96282.00;;;;4969316;28;20502;-73
2023/03/12 01:42:35;;;;;;;1.43;1.17;;;0.30;84.80;1.20;96278.00;;;;4968309;28;20512;-73
2023/03/12 01:46:30;;;;;;;1.30;1.20;;;0.30;85.10;0.80;96282.00;;;;4969717;28;20431;-73
2023/03/12 01:49:24;;;;;;;1.43;1.30;;;0.20;85.60;0.80;96282.00;;;;4968763;28;21031;-71
2023/03/12 01:52:15;;;;;;;6.50;1.13;;;0.00;85.90;0.80;96291.00;;;;4969324;28;20512;-71
2023/03/12 01:55:09;;;;;;;3.13;1.50;;;0.00;86.20;0.60;96284.00;;;;4966773;28;20419;-71
2023/03/12 01:57:59;;;;;;;0.70;0.70;;;0.00;86.10;0.20;96277.00;;;;4965202;28;20497;-73
2023/03/12 02:00:47;;;;;;;1.40;1.33;;;-0.20;86.90;0.80;96291.00;;;;4970717;28;20460;-72
2023/03/12 02:03:38;;;;;;;1.30;1.20;;;-0.20;87.10;0.90;96288.00;;;;4968233;28;21299;-72
2023/03/12 02:06:34;;;;;;;1.43;1.33;;;-0.10;86.80;0.20;96281.00;;;;4969331;28;20431;-73
2023/03/12 02:09:23;;;;;;;2.03;1.30;;;-0.10;87.90;0.60;96287.00;;;;4969267;28;20530;-73
2023/03/12 02:12:13;;;;;;;1.50;0.70;;;-0.30;87.70;0.90;96289.00;;;;4970042;28;20450;-73
2023/03/12 02:15:02;;;;;;;1.13;1.00;;;-0.30;87.60;0.80;96293.00;;;;4967960;28;20529;-73
2023/03/12 02:17:50;;;;;;;1.27;1.17;;;-0.20;87.90;0.30;96282.00;;;;4962189;28;20942;-71
2023/03/12 02:20:50;;;;;;;1.50;1.37;;;-0.20;88.60;0.20;96283.00;;;;4969518;28;20497;-71
2023/03/12 02:23:46;;;;;;;1.53;1.17;;;-0.30;89.00;0.20;96291.00;;;;4969472;28;20434;-70
2023/03/12 02:26:37;;;;;;;1.23;1.17;;;-0.40;89.60;0.50;96295.00;;;;4969539;28;20430;-72
2023/03/12 02:29:29;;;;;;;1.60;1.50;;;-0.50;90.20;0.30;96287.00;;;;4970901;28;20472;-71
2023/03/12 02:32:25;;;;;;;4.13;1.37;;;-0.50;90.30;0.40;96298.00;;;;4966224;28;20462;-72
2023/03/12 02:35:16;;;;;;;1.83;1.53;;;-0.60;90.50;0.50;96289.00;;;;4966516;28;20438;-71
2023/03/12 02:38:42;;;;;;;2.00;1.50;;;-0.60;90.60;0.00;96292.00;;;;4964444;28;20548;-71
2023/03/12 02:41:36;;;;;;;1.20;1.10;;;-0.60;90.60;-0.20;96299.00;;;;4968061;28;20467;-72
2023/03/12 02:44:28;;;;;;;1.33;1.23;;;-0.70;90.90;-0.20;96301.00;;;;4971126;28;20427;-70
2023/03/12 02:47:16;;;;;;;0.80;0.80;;;-0.80;91.10;0.00;96300.00;;;;4966485;28;20981;-71
2023/03/12 02:50:07;;;;;;;2.47;1.33;;;-0.80;91.20;0.30;96303.00;;;;4965870;28;20428;-71
2023/03/12 02:52:55;;;;;;;1.90;1.80;;;-0.80;91.20;0.20;96305.00;;;;4963695;28;20451;-71
2023/03/12 02:55:44;;;;;;;1.93;1.80;;;-0.70;91.30;0.10;96306.00;;;;4967884;28;20435;-71
2023/03/12 02:58:35;;;;;;;6.80;1.43;;;-0.80;91.40;-0.30;96301.00;;;;4967347;28;20435;-72
2023/03/12 03:01:23;;;;;;;5.10;1.33;;;-0.80;91.70;-0.60;96305.00;;;;4968267;28;20479;-73
2023/03/12 03:04:13;;;;;;;4.10;1.30;;;-1.00;92.00;-0.10;96312.00;;;;4968871;28;20423;-73
2023/03/12 03:07:02;;;;;;;0.90;0.90;;;-1.10;92.40;0.10;96310.00;;;;4969047;28;20440;-73
2023/03/12 03:09:51;;;;;;;2.87;1.20;;;-1.00;92.70;-0.40;96316.00;;;;4967108;28;20434;-73
2023/03/12 03:12:40;;;;;;;1.27;1.17;;;-0.80;92.70;-0.70;96321.00;;;;4972864;28;20443;-73
2023/03/12 03:15:30;;;;;;;2.47;1.77;;;-1.20;92.80;-0.80;96326.00;;;;4968798;28;20440;-73
2023/03/12 03:18:18;;;;;;;3.03;1.70;;;-1.30;93.30;-0.30;96330.00;;;;4967111;28;20801;-73
2023/03/12 03:21:15;;;;;;;1.00;1.00;;;-1.30;93.60;-0.20;96337.00;;;;4965750;28;20474;-73
2023/03/12 03:24:05;;;;;;;1.30;1.20;;;-1.30;93.40;-0.10;96346.00;;;;4964148;28;20447;-73
2023/03/12 03:26:53;;;;;;;1.00;1.00;;;-1.20;93.40;-0.10;96340.00;;;;4967996;28;20449;-73
2023/03/12 03:29:42;;;;;;;4.30;1.17;;;-0.70;93.50;-0.20;96347.00;;;;4970440;28;20935;-73
2023/03/12 03:32:32;;;;;;;1.00;1.00;;;-1.10;93.30;-0.10;96353.00;;;;4967708;28;20443;-73
2023/03/12 03:35:23;;;;;;;3.33;1.73;;;-1.10;93.50;-0.50;96352.00;;;;4968304;28;20435;-72
2023/03/12 03:38:11;;;;;;;1.47;1.37;;;-1.20;93.60;-0.70;96357.00;;;;4964593;28;20442;-73
2023/03/12 03:41:00;;;;;;;1.73;1.40;;;-1.20;93.80;-0.90;96347.00;;;;4966533;28;20503;-72
2023/03/12 03:43:49;;;;;;;1.50;1.40;;;-1.30;94.10;-0.90;96365.00;;;;4967270;28;20477;-70
2023/03/12 03:46:38;;;;;;;1.60;1.50;;;-1.40;94.40;-0.70;96356.00;;;;4967751;28;20821;-72
2023/03/12 03:49:28;;;;;;;1.10;1.10;;;-1.40;94.70;-0.50;96372.00;;;;4966994;28;20509;-71
2023/03/12 03:52:17;;;;;;;1.73;1.63;;;-1.40;94.60;-0.60;96373.00;;;;4967275;28;20463;-72
2023/03/12 03:55:06;;;;;;;1.97;1.60;;;-1.40;94.70;-1.10;96366.00;;;;4965105;28;20427;-72
2023/03/12 03:57:55;;;;;;;1.90;1.80;;;-1.60;94.80;-0.60;96374.00;;;;4961584;28;20529;-72
2023/03/12 04:00:45;;;;;;;1.43;1.33;;;-1.60;95.20;-0.80;96370.00;;;;4967854;28;20419;-72
2023/03/12 04:03:34;;;;;;;1.30;1.23;;;-1.60;95.40;-0.60;96390.00;;;;4966776;28;20435;-72
2023/03/12 04:06:25;;;;;;;1.30;1.00;;;-1.60;95.50;-0.60;96389.00;;;;4967972;28;20433;-72
2023/03/12 04:09:13;;;;;;;1.70;1.60;;;-1.50;95.50;-0.90;96377.00;;;;4969723;28;20442;-72
2023/03/12 04:12:02;;;;;;;3.20;1.63;;;-1.40;95.50;-0.90;96382.00;;;;4963211;28;20466;-72
2023/03/12 04:14:51;;;;;;;1.63;1.53;;;-1.60;95.40;-0.80;96386.00;;;;4967124;28;20434;-72
2023/03/12 04:17:40;;;;;;;1.17;1.10;;;-1.70;95.90;-0.70;96387.00;;;;4965370;28;20415;-72
2023/03/12 04:20:29;;;;;;;1.60;1.50;;;-1.70;95.70;-0.80;96375.00;;;;4967048;28;20934;-72
2023/03/12 04:23:19;;;;;;;1.30;1.20;;;-1.60;96.00;-1.00;96384.00;;;;4967733;28;21203;-72
2023/03/12 04:26:08;;;;;;;1.50;1.40;;;-1.70;96.20;-1.00;96382.00;;;;4967108;28;21183;-71
2023/03/12 04:28:57;;;;;;;1.23;1.23;;;-1.70;96.40;-1.30;96385.00;;;;4961580;28;20431;-72
2023/03/12 04:31:46;;;;;;;1.83;1.73;;;-1.80;96.50;-1.10;96390.00;;;;4967306;28;20572;-72
2023/03/12 04:34:35;;;;;;;1.23;1.13;;;-1.80;96.90;-1.00;96400.00;;;;4967626;28;20416;-72
2023/03/12 04:37:24;;;;;;;2.37;1.77;;;-1.70;96.90;-0.90;96398.00;;;;4967943;28;20440;-72
2023/03/12 04:40:14;;;;;;;2.00;1.90;;;-1.80;97.10;-0.90;96402.00;;;;4967028;28;20813;-72
2023/03/12 04:43:03;;;;;;;1.87;1.27;;;-1.80;97.00;-1.00;96404.00;;;;4967258;28;20478;-72
2023/03/12 04:45:52;;;;;;;1.77;1.33;;;-1.90;97.30;-1.40;96396.00;;;;4969471;28;20419;-72
2023/03/12 04:48:40;;;;;;;1.50;1.37;;;-1.90;97.30;-1.40;96389.00;;;;4965055;28;20427;-72
2023/03/12 04:51:30;;;;;;;1.60;1.50;;;-2.00;97.80;-1.00;96425.00;;;;4967019;28;21693;-72
2023/03/12 04:54:20;;;;;;;1.57;1.47;;;-2.00;97.80;-1.30;96415.00;;;;4965349;28;20463;-72
2023/03/12 04:57:10;;;;;;;1.30;1.30;;;-2.00;97.90;-1.20;96416.00;;;;4966904;28;20978;-72
2023/03/12 04:59:59;;;;;;;1.67;1.57;;;-2.00;98.20;-1.40;96411.00;;;;4957615;28;20817;-72
2023/03/12 05:02:48;;;;;;;1.87;1.73;;;-2.10;98.20;-1.80;96411.00;;;;4967231;28;20486;-72
2023/03/12 05:05:37;;;;;;;2.20;1.50;;;-2.20;98.60;-1.40;96421.00;;;;4967108;28;20427;-72
2023/03/12 05:08:25;;;;;;;3.17;1.50;;;-2.20;99.00;-1.40;96425.00;;;;4966377;28;20427;-72
2023/03/12 05:11:14;;;;;;;1.83;1.73;;;-2.20;99.10;-1.30;96431.00;;;;4970654;28;20471;-72
2023/03/12 05:14:04;;;;;;;1.17;1.10;;;-2.20;99.20;-1.20;96426.00;;;;4966689;28;20431;-72
2023/03/12 05:16:53;;;;;;;2.20;1.63;;;-2.20;99.40;-1.40;96429.00;;;;4964958;28;20432;-72
2023/03/12 05:19:42;;;;;;;1.33;0.93;;;-2.20;99.50;-1.60;96432.00;;;;4969956;28;20798;-72
2023/03/12 05:22:31;;;;;;;2.43;1.40;;;-2.20;99.60;-1.80;96432.00;;;;4967219;28;20549;-72
2023/03/12 05:25:19;;;;;;;2.37;1.27;;;-2.20;99.80;-2.20;96430.00;;;;4967938;28;20477;-73
2023/03/12 05:28:08;;;;;;;1.80;1.63;;;-2.40;99.90;-1.70;96448.00;;;;4969401;28;20863;-73
2023/03/12 05:31:00;;;;;;;4.13;2.03;;;-2.40;99.90;-1.40;96453.00;;;;4970594;28;20431;-73
2023/03/12 05:33:49;;;;;;;3.70;1.83;;;-2.50;99.90;-1.20;96451.00;;;;4970643;28;21166;-72
2023/03/12 05:36:40;;;;;;;2.40;1.40;;;-2.30;99.90;-1.20;96451.00;;;;4971413;28;20415;-73
2023/03/12 05:39:29;;;;;;;3.70;1.57;;;-2.30;99.90;-1.10;96459.00;;;;4970075;28;20443;-72
2023/03/12 05:42:18;;;;;;;1.40;1.20;;;-2.20;99.90;-1.30;96468.00;;;;4968912;28;20517;-72
2023/03/12 05:45:08;;;;;;;1.10;1.10;;;-2.20;99.90;-1.50;96470.00;;;;4972268;28;20469;-72
2023/03/12 05:47:58;;;;;;;1.60;1.50;;;-2.20;99.90;-1.60;96471.00;;;;4968069;28;20807;-72
2023/03/12 05:50:47;;;;;;;12.67;6.90;;;-2.20;99.90;-1.60;96484.00;;;;4967461;28;20969;-72
2023/03/12 05:53:36;;;;;;;22.07;12.20;;;-2.20;99.90;-2.00;96476.00;;;;4966637;28;20471;-72
2023/03/12 05:56:25;;;;;;;1.40;1.20;;;-2.30;99.90;-2.20;96483.00;;;;4971341;28;20503;-70
2023/03/12 05:59:14;;;;;;;42.13;18.43;;;-2.40;99.90;-1.50;96497.00;;;;4965659;28;20453;-72
2023/03/12 06:02:03;;;;;;;26.70;10.77;;;-2.20;99.90;-1.50;96501.00;;;;4971280;28;20475;-71
2023/03/12 06:04:53;;;;;;;18.43;10.80;;;-2.30;99.90;-1.60;96484.00;;;;4971444;28;20427;-70
2023/03/12 06:07:41;;;;;;;1.40;1.30;;;-2.20;99.90;-1.60;96489.00;;;;4971001;28;20555;-72
2023/03/12 06:10:31;;;;;;;1.63;1.53;;;-2.20;99.90;-1.70;96496.00;;;;4969627;28;20447;-72
2023/03/12 06:13:19;;;;;;;1.70;1.57;;;-2.20;99.90;-1.60;96507.00;;;;4973460;28;20470;-73
2023/03/12 06:16:13;;;;;;;0.97;0.97;;;-1.80;99.90;-1.60;96506.00;;;;4969736;28;20469;-73
2023/03/12 06:19:03;;;;;;;2.13;1.57;;;-2.10;99.90;-1.50;96504.00;;;;4969597;28;20507;-71
2023/03/12 06:21:53;;;;;;;2.50;1.97;;;-2.10;99.90;-1.20;96522.00;;;;4968207;28;20450;-72
2023/03/12 06:24:46;;;;;;;2.90;1.80;;;-2.00;99.90;-1.00;96520.00;;;;4972565;28;20488;-72
2023/03/12 06:27:34;;;;;;;3.93;2.07;;;-1.90;99.90;-1.10;96524.00;;;;4968334;28;20561;-73
2023/03/12 06:30:23;;;;;;;1.90;1.80;;;-1.80;99.90;-0.90;96524.00;;;;4966556;28;20431;-71
2023/03/12 06:33:13;;;;;;;1.77;1.50;;;-1.70;99.90;-0.80;96529.00;;;;4968119;28;20973;-70
2023/03/12 06:36:05;;;;;;;1.70;1.60;;;-1.60;99.90;-0.40;96537.00;;;;4968654;28;20946;-71
2023/03/12 06:38:55;;;;;;;3.07;2.10;;;-1.40;99.90;-0.30;96536.00;;;;4968677;28;20431;-70
2023/03/12 06:41:44;;;;;;;2.27;2.13;;;-1.30;99.90;-0.40;96532.00;;;;4970310;28;20454;-71
2023/03/12 06:44:33;;;;;;;4.63;2.40;;;-1.30;99.90;-0.40;96526.00;;;;4968814;28;20435;-72
2023/03/12 06:47:22;;;;;;;3.13;1.70;;;-1.20;99.90;-0.20;96537.00;;;;4967854;28;20525;-72
2023/03/12 06:50:11;;;;;;;1.90;1.70;;;-1.10;99.90;-0.40;96538.00;;;;4970489;28;20962;-72
2023/03/12 06:53:00;;;;;;;1.73;1.63;;;-1.10;99.90;0.00;96545.00;;;;4967730;28;20467;-71
2023/03/12 06:55:51;;;;;;;9.33;2.20;;;-1.00;99.90;0.60;96554.00;;;;4967374;28;20447;-72
2023/03/12 06:58:40;;;;;;;2.40;1.60;;;-0.90;99.90;0.70;96552.00;;;;4965976;28;20454;-72
2023/03/12 07:01:29;;;;;;;1.83;1.73;;;-0.70;99.90;0.80;96551.00;;;;4967311;28;20811;-72
2023/03/12 07:04:18;;;;;;;2.23;2.00;;;-0.50;99.90;1.30;96579.00;;;;4966622;28;20474;-72
2023/03/12 07:07:07;;;;;;;1.20;1.20;;;-0.30;99.90;1.00;96577.00;;;;4968309;28;20427;-72
2023/03/12 07:09:56;;;;;;;1.90;1.63;;;-0.20;99.90;1.20;96579.00;;;;4966260;28;20925;-72
2023/03/12 07:12:46;;;;;;;1.30;1.30;;;0.00;99.90;1.40;96586.00;;;;4967653;28;20869;-72
2023/03/12 07:15:35;;;;;;;3.10;1.50;;;0.10;99.90;1.70;96597.00;;;;4963445;28;20497;-72
2023/03/12 07:18:24;;;;;;;2.03;1.83;;;0.20;99.90;2.10;96599.00;;;;4965764;28;20921;-71
2023/03/12 07:21:15;;;;;;;2.67;2.40;;;0.40;99.90;2.40;96599.00;;;;4965496;28;20463;-70
2023/03/12 07:24:06;;;;;;;2.00;1.73;;;0.70;99.90;2.90;96599.00;;;;4970058;28;21060;-69
2023/03/12 07:26:55;;;;;;;2.23;2.03;;;1.00;99.90;3.20;96605.00;;;;4970034;28;20446;-69
2023/03/12 07:29:45;;;;;;;2.30;1.93;;;1.20;99.90;3.50;96612.00;;;;4967542;28;20443;-69
2023/03/12 07:32:35;;;;;;;2.10;2.00;;;1.50;99.60;3.70;96618.00;;;;4961804;28;20495;-70
2023/03/12 07:35:24;;;;;;;2.30;2.10;;;1.70;99.20;3.90;96617.00;;;;4967731;28;20423;-70
2023/03/12 07:38:13;;;;;;;1.87;1.57;;;2.00;98.90;4.10;96630.00;;;;4965024;28;20442;-71
2023/03/12 07:41:01;;;;;;;2.30;2.17;;;2.30;98.30;4.20;96639.00;;;;4966592;28;20442;-72
2023/03/12 07:43:50;;;;;;;2.87;1.87;;;2.50;97.30;4.20;96639.00;;;;4965920;28;20492;-74
2023/03/12 07:46:41;;;;;;;1.77;1.53;;;2.60;96.30;4.60;96639.00;;;;4966134;28;20431;-73
2023/03/12 07:49:29;;;;;;;3.27;2.20;;;2.80;96.40;4.60;96639.00;;;;4966182;28;20968;-72
2023/03/12 07:52:19;;;;;;;2.80;2.53;;;2.90;96.10;4.80;96652.00;;;;4966396;28;20532;-72
2023/03/12 07:55:10;;;;;;;4.23;2.40;;;3.10;95.70;4.80;96655.00;;;;4966429;28;20439;-73
2023/03/12 07:57:58;;;;;;;2.97;2.30;;;3.30;94.70;5.00;96654.00;;;;4965394;28;20436;-73
2023/03/12 08:00:47;;;;;;;2.03;1.83;;;3.40;94.60;5.20;96655.00;;;;4964097;28;20926;-73
2023/03/12 08:03:38;;;;;;;4.53;2.50;;;3.50;94.10;5.40;96647.00;;;;4965624;28;20465;-74
2023/03/12 08:06:27;;;;;;;5.43;2.30;;;3.60;94.00;5.50;96645.00;;;;4966254;28;20427;-74
2023/03/12 08:09:16;;;;;;;3.37;2.23;;;3.80;93.90;5.70;96648.00;;;;4965672;28;20422;-74
2023/03/12 08:12:05;;;;;;;2.43;2.00;;;4.00;93.90;5.60;96650.00;;;;4965033;28;20698;-74
2023/03/12 08:14:54;;;;;;;2.83;2.27;;;4.10;93.10;5.10;96652.00;;;;4962286;28;20958;-74
2023/03/12 08:17:42;;;;;;;2.73;2.00;;;4.20;92.60;5.50;96651.00;;;;4964811;28;20219;-74
2023/03/12 08:20:33;;;;;;;2.53;2.20;;;4.20;92.40;5.70;96660.00;;;;4963240;28;20207;-75
2023/03/12 08:23:24;;;;;;;2.40;2.20;;;4.30;92.30;5.60;96650.00;;;;4963911;28;20227;-75
2023/03/12 08:26:12;;;;;;;3.83;2.33;;;4.30;91.70;5.70;96656.00;;;;4963711;28;20211;-75
2023/03/12 08:29:01;;;;;;;2.53;2.10;;;4.40;91.70;5.90;96657.00;;;;4970507;28;20214;-75
2023/03/12 08:31:50;;;;;;;5.77;2.30;;;4.50;91.50;5.40;96642.00;;;;4964722;28;20220;-73
2023/03/12 08:34:51;;;;;;;2.57;2.20;;;4.50;91.40;6.30;96651.00;;;;4964024;28;20731;-71
2023/03/12 08:37:42;;;;;;;3.20;2.13;;;4.60;91.60;6.30;96659.00;;;;4972343;28;20210;-72
2023/03/12 08:40:31;;;;;;;5.07;2.50;;;4.80;90.90;6.60;96645.00;;;;4963698;28;20207;-72
2023/03/12 08:43:19;;;;;;;3.03;1.83;;;4.90;90.60;6.90;96649.00;;;;4964278;28;20269;-71
2023/03/12 08:46:08;;;;;;;2.27;1.97;;;5.10;90.70;7.00;96648.00;;;;4964088;28;20214;-72
2023/03/12 08:48:59;;;;;;;2.37;2.17;;;5.30;90.50;7.40;96652.00;;;;4961688;28;20703;-72
2023/03/12 08:51:51;;;;;;;3.43;2.13;;;5.50;90.20;7.40;96643.00;;;;4968491;28;20234;-72
2023/03/12 08:54:43;;;;;;;2.97;1.70;;;5.70;89.50;7.30;96656.00;;;;4962467;28;20204;-74
2023/03/12 08:57:31;;;;;;;2.03;1.90;;;5.70;87.70;7.80;96655.00;;;;4961767;28;20195;-74
2023/03/12 09:00:21;;;;;;;2.40;2.20;;;5.90;88.00;7.70;96648.00;;;;4960378;28;20215;-75
2023/03/12 09:03:13;;;;;;;1.83;1.73;;;6.00;87.10;7.30;96641.00;;;;4964606;28;20223;-76
2023/03/12 09:06:12;;;;;;;4.40;2.70;;;6.00;86.80;7.00;96655.00;;;;4962137;28;20200;-73
2023/03/12 09:09:03;;;;;;;2.67;2.20;;;6.00;85.20;6.40;96645.00;;;;4963386;28;20214;-72
2023/03/12 09:11:54;;;;;;;2.27;2.00;;;5.80;84.80;6.80;96642.00;;;;4964920;28;20238;-72
2023/03/12 09:14:42;;;;;;;2.77;2.17;;;5.70;85.00;7.50;96650.00;;;;4964521;28;20235;-69
2023/03/12 09:17:50;;;;;;;2.10;1.73;;;5.80;86.50;7.90;96639.00;;;;4964580;28;20204;-70
2023/03/12 09:20:38;;;;;;;2.33;1.87;;;6.10;85.10;8.20;96649.00;;;;4965818;28;20257;-70
2023/03/12 09:23:28;;;;;;;2.47;2.20;;;6.30;85.20;8.80;96645.00;;;;4962977;28;20296;-69
2023/03/12 09:26:17;;;;;;;3.10;2.63;;;6.60;85.20;9.30;96648.00;;;;4963714;28;20312;-73
2023/03/12 09:29:07;;;;;;;2.83;2.30;;;6.90;85.00;9.30;96649.00;;;;4963010;28;20679;-74
2023/03/12 09:31:55;;;;;;;2.57;1.90;;;7.30;82.90;9.40;96640.00;;;;4962709;28;20285;-71
2023/03/12 09:34:44;;;;;;;3.30;2.13;;;7.40;81.20;9.30;96643.00;;;;4965223;28;20207;-68
2023/03/12 09:37:33;;;;;;;3.17;1.93;;;7.60;80.60;8.70;96627.00;;;;4961679;28;20286;-69
2023/03/12 09:40:27;;;;;;;2.83;2.63;;;7.60;78.30;9.60;96659.00;;;;4966972;28;20211;-68
2023/03/12 09:43:23;;;;;;;4.00;2.80;;;7.80;80.50;9.70;96663.00;;;;4966856;28;20206;-68
2023/03/12 09:46:19;;;;;;;2.43;2.03;;;7.90;79.70;9.70;96654.00;;;;4968211;28;20195;-68
2023/03/12 09:49:19;;;;;;;3.57;3.00;;;7.90;78.60;9.30;96656.00;;;;4967972;28;20195;-68
2023/03/12 09:52:19;;;;;;;2.80;2.60;;;8.00;76.10;9.30;96657.00;;;;4966610;28;20710;-71
2023/03/12 09:55:14;;;;;;;3.10;2.30;;;7.90;75.70;9.40;96664.00;;;;4964977;28;20415;-71
2023/03/12 09:58:03;;;;;;;2.40;2.13;;;7.80;75.30;9.40;96661.00;;;;4967408;28;20200;-73
2023/03/12 10:00:58;;;;;;;2.43;2.13;;;7.80;75.10;9.40;96660.00;;;;4967199;28;20204;-73
2023/03/12 10:04:36;;;;;;;3.53;2.47;;;7.80;75.90;9.30;96650.00;;;;4970264;28;20245;-70
2023/03/12 10:07:46;;;;;;;3.03;2.13;;;7.70;75.40;10.00;96656.00;;;;4966711;28;20292;-70
2023/03/12 10:10:49;;;;;;;2.43;2.10;;;7.90;76.80;10.20;96652.00;;;;4969370;28;20214;-70
2023/03/12 10:14:08;;;;;;;2.43;1.70;;;8.20;75.70;10.20;96628.00;;;;4968774;28;20260;-74
2023/03/12 10:17:18;;;;;;;4.07;2.33;;;8.40;74.80;11.00;96648.00;;;;4979238;28;20195;-76
2023/03/12 10:20:55;;;;;;;2.30;2.10;;;8.80;74.10;11.50;96652.00;;;;4967537;28;20225;-75
2023/03/12 10:24:15;;;;;;;2.30;1.83;;;9.10;74.40;11.40;96645.00;;;;4968017;28;20191;-74
2023/03/12 10:27:12;;;;;;;4.90;2.57;;;9.40;73.40;11.00;96635.00;;;;4967416;28;20689;-71
2023/03/12 10:30:03;;;;;;;4.00;2.60;;;9.70;69.70;11.60;96650.00;;;;4967987;28;20675;-68
2023/03/12 10:32:57;;;;;;;3.77;2.53;;;9.90;70.30;12.30;96632.00;;;;4969501;28;20234;-71
2023/03/12 10:35:47;;;;;;;2.10;1.80;;;10.10;70.80;10.70;96645.00;;;;4965275;28;20735;-73
2023/03/12 10:38:37;;;;;;;5.30;2.63;;;10.10;68.30;9.60;96644.00;;;;4966184;28;20203;-73
2023/03/12 10:41:30;;;;;;;3.70;2.40;;;9.70;66.80;10.70;96642.00;;;;4968130;28;20223;-71
2023/03/12 10:44:24;;;;;;;2.63;2.10;;;9.60;67.30;10.10;96643.00;;;;4967565;28;20714;-70
2023/03/12 10:47:30;;;;;;;4.03;2.33;;;9.40;65.80;10.00;96614.00;;;;4978490;28;20706;-75
2023/03/12 10:50:21;;;;;;;2.20;1.97;;;9.10;66.70;10.00;96638.00;;;;4964877;28;20219;-74
2023/03/12 10:53:21;;;;;;;2.43;2.23;;;9.10;67.10;11.20;96638.00;;;;4963660;28;20722;-71
2023/03/12 10:56:14;;;;;;;7.00;2.30;;;9.20;69.40;9.20;96633.00;;;;4969782;28;20674;-71
2023/03/12 10:59:21;;;;;;;3.27;2.40;;;8.40;65.90;9.40;96636.00;;;;4964530;28;20265;-69
2023/03/12 11:02:33;;;;;;;4.73;2.50;;;8.70;66.40;11.20;96637.00;;;;4964254;28;20223;-68
2023/03/12 11:05:25;;;;;;;4.13;2.70;;;8.90;68.80;10.40;96625.00;;;;4964646;28;20215;-76
2023/03/12 11:08:23;;;;;;;2.30;2.10;;;9.30;68.00;9.20;96653.00;;;;4966835;28;20207;-68
2023/03/12 11:11:13;;;;;;;3.83;2.50;;;9.00;66.50;8.20;96644.00;;;;4975320;28;20220;-79
2023/03/12 11:14:16;;;;;;;2.27;1.90;;;8.50;66.80;8.10;96636.00;;;;4966078;28;20196;-65
2023/03/12 11:17:21;;;;;;;3.63;2.37;;;8.00;67.50;8.30;96621.00;;;;4969408;28;20199;-75
2023/03/12 11:20:26;;;;;;;3.57;2.10;;;7.80;68.80;8.10;96617.00;;;;4967403;28;20211;-66
2023/03/12 11:23:18;;;;;;;2.80;2.40;;;7.60;68.90;8.20;96627.00;;;;4968845;28;20264;-66
2023/03/12 11:26:18;;;;;;;3.73;2.27;;;7.50;70.30;8.80;96616.00;;;;4967737;28;20702;-76
2023/03/12 11:29:18;;;;;;;2.43;1.80;;;7.70;70.00;8.50;96613.00;;;;4970590;28;20203;-79
2023/03/12 11:32:16;;;;;;;1.97;1.87;;;7.80;69.50;8.30;96598.00;;;;4969291;28;20595;-75
2023/03/12 11:35:11;;;;;;;1.73;1.60;;;7.70;68.10;8.80;96594.00;;;;4968814;28;20211;-67
2023/03/12 11:38:08;;;;;;;2.23;2.07;;;7.80;67.80;9.50;96610.00;;;;4967135;28;20593;-67
2023/03/12 11:41:14;;;;;;;2.00;1.87;;;8.00;68.80;9.70;96604.00;;;;4964220;28;20218;-70
2023/03/12 11:44:24;;;;;;;3.03;2.10;;;8.20;67.30;10.70;96600.00;;;;4963228;28;20594;-72
2023/03/12 11:47:28;;;;;;;2.90;2.67;;;8.60;67.30;11.60;96601.00;;;;4967564;28;20690;-71
2023/03/12 11:50:28;;;;;;;5.17;2.17;;;9.20;67.50;11.70;96624.00;;;;4968299;28;20253;-67
2023/03/12 11:53:48;;;;;;;3.60;3.30;;;9.60;66.20;10.40;96619.00;;;;4965616;28;20740;-77
2023/03/12 11:56:41;;;;;;;3.27;2.83;;;9.80;65.40;10.30;96567.00;;;;4965567;28;20214;-70
2023/03/12 11:59:52;;;;;;;4.20;2.00;;;9.50;64.40;12.60;96589.00;;;;4967738;28;20885;-70
2023/03/12 12:03:14;;;;;;;2.50;2.30;;;10.00;67.00;13.40;96585.00;;;;4966860;28;20238;-69
2023/03/12 12:06:07;;;;;;;2.43;1.90;;;10.70;67.00;12.50;96585.00;;;;4965887;28;20729;-74
2023/03/12 12:09:10;;;;;;;2.10;1.90;;;11.20;62.10;14.40;96577.00;;;;4963959;28;20200;-68
2023/03/12 12:12:19;;;;;;;3.57;2.40;;;11.60;64.40;13.90;96576.00;;;;4964162;28;20639;-70
2023/03/12 12:15:22;;;;;;;2.27;1.90;;;12.10;63.30;13.40;96597.00;;;;4962150;28;20218;-69
2023/03/12 12:18:31;;;;;;;4.23;2.37;;;12.10;61.40;13.50;96599.00;;;;4962389;28;20210;-69
2023/03/12 12:21:38;;;;;;;2.60;1.90;;;12.10;61.20;13.40;96585.00;;;;4963818;28;20510;-69
2023/03/12 12:24:51;;;;;;;2.90;1.97;;;12.00;60.80;13.50;96577.00;;;;4962986;28;20211;-72
2023/03/12 12:27:50;;;;;;;2.03;1.83;;;11.90;59.40;13.80;96589.00;;;;4963989;28;20222;-71
2023/03/12 12:30:55;;;;;;;2.03;1.90;;;11.90;60.60;13.50;96606.00;;;;4966562;28;20218;-69
2023/03/12 12:34:01;;;;;;;4.70;2.23;;;11.90;60.20;13.20;96597.00;;;;4968924;28;20208;-69
2023/03/12 12:36:54;;;;;;;1.73;1.53;;;11.70;60.50;13.50;96577.00;;;;4968603;28;21211;-69
2023/03/12 12:39:48;;;;;;;1.63;1.50;;;11.70;60.90;13.40;96600.00;;;;4964151;28;20634;-69
2023/03/12 12:42:50;;;;;;;3.07;1.63;;;11.70;60.60;12.90;96595.00;;;;4965072;28;20215;-69
2023/03/12 12:45:44;;;;;;;3.00;1.70;;;11.60;60.90;12.50;96597.00;;;;4967884;28;20230;-72
2023/03/12 12:48:38;;;;;;;2.07;1.70;;;11.40;61.20;11.90;96603.00;;;;4960473;28;20594;-71
2023/03/12 12:51:33;;;;;;;1.90;1.80;;;11.20;61.50;12.20;96611.00;;;;4965259;28;20227;-71
2023/03/12 12:54:31;;;;;;;4.10;3.50;;;11.00;61.10;11.60;96605.00;;;;4970494;28;20199;-72
2023/03/12 12:57:28;;;;;;;4.10;3.47;;;10.70;61.60;11.50;96602.00;;;;4965901;28;20219;-72